Time,TemperatureF,DewpointF,PressureIn,WindDirection,WindDirectionDegrees,WindSpeedMPH,WindSpeedGustMPH,Humidity,HourlyPrecipIn,Conditions,Clouds,dailyrainin,SolarRadiationWatts/m^2,SoftwareType,DateUTC
2013-01-26 00:01:00,38.0,36.0,-100.00,East,92,5.0,6.0,92,0.00,,,0.03,1.000000,,2013-01-26 07:01:00,
2013-01-26 00:12:00,38.0,36.0,-100.00,East,92,5.0,6.0,92,0.00,,,0.03,1.000000,,2013-01-26 07:12:00,
2013-01-26 00:21:00,38.0,36.0,-100.00,East,92,5.0,6.0,92,0.00,,,0.03,1.000000,,2013-01-26 07:21:00,
2013-01-26 00:33:00,38.0,36.0,-100.00,East,92,5.0,6.0,92,0.00,,,0.03,1.000000,,2013-01-26 07:33:00,
2013-01-26 01:02:00,38.0,36.0,-100.00,SE,126,5.0,6.0,93,0.00,,,0.03,1.000000,,2013-01-26 08:02:00,
2013-01-26 01:11:00,38.0,36.0,-100.00,SE,126,5.0,6.0,93,0.00,,,0.03,1.000000,,2013-01-26 08:11:00,
2013-01-26 01:21:00,38.0,36.0,-100.00,SE,126,5.0,6.0,93,0.00,,,0.03,1.000000,,2013-01-26 08:21:00,
2013-01-26 01:31:00,38.0,36.0,-100.00,SE,126,5.0,6.0,93,0.00,,,0.03,1.000000,,2013-01-26 08:31:00,
2013-01-26 01:54:00,38.0,37.0,-100.00,SE,138,5.0,8.0,96,0.01,,,0.04,1.000000,,2013-01-26 08:54:00,
2013-01-26 02:02:00,38.0,37.0,-100.00,SE,138,5.0,8.0,96,0.01,,,0.04,1.000000,,2013-01-26 09:02:00,
2013-01-26 02:11:00,38.0,37.0,-100.00,SE,138,5.0,8.0,96,0.01,,,0.04,1.000000,,2013-01-26 09:11:00,
2013-01-26 02:22:00,38.0,37.0,-100.00,SE,138,5.0,8.0,96,0.01,,,0.04,1.000000,,2013-01-26 09:22:00,
2013-01-26 02:31:00,38.0,37.0,-100.00,SE,138,5.0,8.0,96,0.01,,,0.04,1.000000,,2013-01-26 09:31:00,
2013-01-26 02:52:00,38.0,37.0,-100.00,SSE,151,3.0,7.0,97,0.03,,,0.07,1.000000,,2013-01-26 09:52:00,
2013-01-26 03:01:00,38.0,37.0,-100.00,SSE,151,3.0,7.0,97,0.03,,,0.07,1.000000,,2013-01-26 10:01:00,
2013-01-26 03:11:00,38.0,37.0,-100.00,SSE,151,3.0,7.0,97,0.03,,,0.07,1.000000,,2013-01-26 10:11:00,
2013-01-26 03:21:00,38.0,37.0,-100.00,SSE,151,3.0,7.0,97,0.03,,,0.07,1.000000,,2013-01-26 10:21:00,
2013-01-26 03:31:00,38.0,37.0,-100.00,SSE,151,3.0,7.0,97,0.03,,,0.07,1.000000,,2013-01-26 10:31:00,
2013-01-26 03:52:00,38.0,37.0,-100.00,ESE,122,4.0,7.0,97,0.06,,,0.12,1.000000,,2013-01-26 10:52:00,
2013-01-26 04:01:00,38.0,37.0,-100.00,ESE,122,4.0,7.0,97,0.06,,,0.12,1.000000,,2013-01-26 11:01:00,
2013-01-26 04:12:00,38.0,37.0,-100.00,ESE,122,4.0,7.0,97,0.06,,,0.12,1.000000,,2013-01-26 11:12:00,
2013-01-26 04:22:00,38.0,37.0,-100.00,ESE,122,4.0,7.0,97,0.06,,,0.12,1.000000,,2013-01-26 11:22:00,
2013-01-26 04:32:00,38.0,37.0,-100.00,ESE,122,4.0,7.0,97,0.06,,,0.12,1.000000,,2013-01-26 11:32:00,
2013-01-26 05:02:00,37.0,36.0,-100.00,ESE,107,5.0,8.0,98,0.03,,,0.15,1.000000,,2013-01-26 12:02:00,
2013-01-26 05:12:00,37.0,36.0,-100.00,ESE,107,5.0,8.0,98,0.03,,,0.15,1.000000,,2013-01-26 12:12:00,
2013-01-26 05:22:00,37.0,36.0,-100.00,ESE,107,5.0,8.0,98,0.03,,,0.15,1.000000,,2013-01-26 12:22:00,
2013-01-26 05:33:00,37.0,36.0,-100.00,ESE,107,5.0,8.0,98,0.03,,,0.15,1.000000,,2013-01-26 12:33:00,
2013-01-26 06:03:00,36.0,35.0,-100.00,East,89,6.0,11.0,97,0.08,,,0.22,1.000000,,2013-01-26 13:03:00,
2013-01-26 06:12:00,36.0,35.0,-100.00,East,89,6.0,11.0,97,0.08,,,0.22,1.000000,,2013-01-26 13:12:00,
2013-01-26 06:22:00,36.0,35.0,-100.00,East,89,6.0,11.0,97,0.08,,,0.22,1.000000,,2013-01-26 13:22:00,
2013-01-26 06:32:00,36.0,35.0,-100.00,East,89,6.0,11.0,97,0.08,,,0.22,1.000000,,2013-01-26 13:32:00,
2013-01-26 07:02:00,35.0,34.0,-100.00,ENE,78,5.0,9.0,97,0.07,,,0.29,1.000000,,2013-01-26 14:02:00,
2013-01-26 07:11:00,35.0,34.0,-100.00,ENE,78,5.0,9.0,97,0.07,,,0.29,1.000000,,2013-01-26 14:11:00,
2013-01-26 07:21:00,35.0,34.0,-100.00,ENE,78,5.0,9.0,97,0.07,,,0.29,1.000000,,2013-01-26 14:21:00,
2013-01-26 07:31:00,35.0,34.0,-100.00,ENE,78,5.0,9.0,97,0.07,,,0.29,1.000000,,2013-01-26 14:31:00,
2013-01-26 07:53:00,35.0,34.0,-100.00,ENE,73,5.0,7.0,97,0.08,,,0.37,1.000000,,2013-01-26 14:53:00,
2013-01-26 08:02:00,35.0,34.0,-100.00,ENE,73,5.0,7.0,97,0.08,,,0.37,1.000000,,2013-01-26 15:02:00,
2013-01-26 08:12:00,35.0,34.0,-100.00,ENE,73,5.0,7.0,97,0.08,,,0.37,1.000000,,2013-01-26 15:12:00,
2013-01-26 08:22:00,35.0,34.0,-100.00,ENE,73,5.0,7.0,97,0.08,,,0.37,1.000000,,2013-01-26 15:22:00,
2013-01-26 08:32:00,35.0,34.0,-100.00,ENE,73,5.0,7.0,97,0.08,,,0.37,1.000000,,2013-01-26 15:32:00,
2013-01-26 09:02:00,35.0,34.0,-100.00,East,79,5.0,8.0,98,0.04,,,0.41,12.000000,,2013-01-26 16:02:00,
2013-01-26 09:12:00,35.0,34.0,-100.00,East,79,5.0,8.0,98,0.04,,,0.41,12.000000,,2013-01-26 16:12:00,
2013-01-26 09:21:00,35.0,34.0,-100.00,East,79,5.0,8.0,98,0.04,,,0.41,12.000000,,2013-01-26 16:21:00,
2013-01-26 09:32:00,35.0,34.0,-100.00,East,79,5.0,8.0,98,0.04,,,0.41,12.000000,,2013-01-26 16:32:00,
2013-01-26 10:03:00,36.0,35.0,-100.00,East,81,7.0,12.0,98,0.02,,,0.43,33.000000,,2013-01-26 17:03:00,
2013-01-26 10:12:00,36.0,35.0,-100.00,East,81,7.0,12.0,98,0.02,,,0.43,33.000000,,2013-01-26 17:12:00,
2013-01-26 10:22:00,36.0,35.0,-100.00,East,81,7.0,12.0,98,0.02,,,0.43,33.000000,,2013-01-26 17:22:00,
2013-01-26 10:32:00,36.0,35.0,-100.00,East,81,7.0,12.0,98,0.02,,,0.43,33.000000,,2013-01-26 17:32:00,
2013-01-26 11:02:00,36.0,35.0,-100.00,East,84,5.0,13.0,98,0.06,,,0.48,33.000000,,2013-01-26 18:02:00,
2013-01-26 11:12:00,36.0,35.0,-100.00,East,84,5.0,13.0,98,0.06,,,0.48,33.000000,,2013-01-26 18:12:00,
2013-01-26 11:22:00,36.0,35.0,-100.00,East,84,5.0,13.0,98,0.06,,,0.48,33.000000,,2013-01-26 18:22:00,
2013-01-26 11:32:00,36.0,35.0,-100.00,East,84,5.0,13.0,98,0.06,,,0.48,33.000000,,2013-01-26 18:32:00,
2013-01-26 12:03:00,39.0,38.0,-100.00,SSE,152,5.0,9.0,98,0.06,,,0.54,66.000000,,2013-01-26 19:03:00,
2013-01-26 12:11:00,39.0,38.0,-100.00,SSE,152,5.0,9.0,98,0.06,,,0.54,66.000000,,2013-01-26 19:11:00,
2013-01-26 12:22:00,39.0,38.0,-100.00,SSE,152,5.0,9.0,98,0.06,,,0.54,66.000000,,2013-01-26 19:22:00,
2013-01-26 12:32:00,39.0,38.0,-100.00,SSE,152,5.0,9.0,98,0.06,,,0.54,66.000000,,2013-01-26 19:32:00,
2013-01-26 12:53:00,39.0,38.0,-100.00,SSE,163,4.0,8.0,98,0.06,,,0.60,65.000000,,2013-01-26 19:53:00,
2013-01-26 13:02:00,39.0,38.0,-100.00,SSE,163,4.0,8.0,98,0.06,,,0.60,65.000000,,2013-01-26 20:02:00,
2013-01-26 13:11:00,39.0,38.0,-100.00,SSE,163,4.0,8.0,98,0.06,,,0.60,65.000000,,2013-01-26 20:11:00,
2013-01-26 13:21:00,39.0,38.0,-100.00,SSE,163,4.0,8.0,98,0.06,,,0.60,65.000000,,2013-01-26 20:21:00,
2013-01-26 13:32:00,39.0,38.0,-100.00,SSE,163,4.0,8.0,98,0.06,,,0.60,65.000000,,2013-01-26 20:32:00,
2013-01-26 13:52:00,40.0,39.0,-100.00,SW,234,4.0,7.0,98,0.11,,,0.71,52.000000,,2013-01-26 20:52:00,
2013-01-26 14:02:00,40.0,39.0,-100.00,SW,234,4.0,7.0,98,0.11,,,0.71,52.000000,,2013-01-26 21:02:00,
2013-01-26 14:12:00,40.0,39.0,-100.00,SW,234,4.0,7.0,98,0.11,,,0.71,52.000000,,2013-01-26 21:12:00,
2013-01-26 14:22:00,40.0,39.0,-100.00,SW,234,4.0,7.0,98,0.11,,,0.71,52.000000,,2013-01-26 21:22:00,
2013-01-26 14:31:00,40.0,39.0,-100.00,SW,234,4.0,7.0,98,0.11,,,0.71,52.000000,,2013-01-26 21:31:00,
2013-01-26 14:52:00,38.0,37.0,-100.00,SW,231,8.0,14.0,97,0.13,,,0.84,44.000000,,2013-01-26 21:52:00,
2013-01-26 15:01:00,38.0,37.0,-100.00,SW,231,8.0,14.0,97,0.13,,,0.84,44.000000,,2013-01-26 22:01:00,
2013-01-26 15:11:00,38.0,37.0,-100.00,SW,231,8.0,14.0,97,0.13,,,0.84,44.000000,,2013-01-26 22:11:00,
2013-01-26 15:21:00,38.0,37.0,-100.00,SW,231,8.0,14.0,97,0.13,,,0.84,44.000000,,2013-01-26 22:21:00,
2013-01-26 15:31:00,38.0,37.0,-100.00,SW,231,8.0,14.0,97,0.13,,,0.84,44.000000,,2013-01-26 22:31:00,
2013-01-26 15:52:00,36.0,35.0,-100.00,SW,229,5.0,10.0,96,0.13,,,0.97,51.000000,,2013-01-26 22:52:00,
2013-01-26 16:01:00,36.0,35.0,-100.00,SW,229,5.0,10.0,96,0.13,,,0.97,51.000000,,2013-01-26 23:01:00,
2013-01-26 16:11:00,36.0,35.0,-100.00,SW,229,5.0,10.0,96,0.13,,,0.97,51.000000,,2013-01-26 23:11:00,
2013-01-26 16:21:00,36.0,35.0,-100.00,SW,229,5.0,10.0,96,0.13,,,0.97,51.000000,,2013-01-26 23:21:00,
2013-01-26 16:32:00,36.0,35.0,-100.00,SW,229,5.0,10.0,96,0.13,,,0.97,51.000000,,2013-01-26 23:32:00,
2013-01-26 17:02:00,35.0,34.0,-100.00,SW,227,8.0,16.0,97,0.11,,,1.08,26.000000,,2013-01-27 00:02:00,
2013-01-26 17:11:00,35.0,34.0,-100.00,SW,227,8.0,16.0,97,0.11,,,1.08,26.000000,,2013-01-27 00:11:00,
2013-01-26 17:21:00,35.0,34.0,-100.00,SW,227,8.0,16.0,97,0.11,,,1.08,26.000000,,2013-01-27 00:21:00,
2013-01-26 17:31:00,35.0,34.0,-100.00,SW,227,8.0,16.0,97,0.11,,,1.08,26.000000,,2013-01-27 00:31:00,
2013-01-26 18:01:00,35.0,34.0,-100.00,SW,221,7.0,13.0,97,0.07,,,1.15,10.000000,,2013-01-27 01:01:00,
2013-01-26 18:11:00,35.0,34.0,-100.00,SW,221,7.0,13.0,97,0.07,,,1.15,10.000000,,2013-01-27 01:11:00,
2013-01-26 18:22:00,35.0,34.0,-100.00,SW,221,7.0,13.0,97,0.07,,,1.15,10.000000,,2013-01-27 01:22:00,
2013-01-26 18:32:00,35.0,34.0,-100.00,SW,221,7.0,13.0,97,0.07,,,1.15,10.000000,,2013-01-27 01:32:00,
2013-01-26 18:52:00,36.0,35.0,-100.00,SSW,212,7.0,15.0,97,0.05,,,1.20,1.000000,,2013-01-27 01:52:00,
2013-01-26 19:01:00,36.0,35.0,-100.00,SSW,212,7.0,15.0,97,0.05,,,1.20,1.000000,,2013-01-27 02:01:00,
2013-01-26 19:11:00,36.0,35.0,-100.00,SSW,212,7.0,15.0,97,0.05,,,1.20,1.000000,,2013-01-27 02:11:00,
2013-01-26 19:21:00,36.0,35.0,-100.00,SSW,212,7.0,15.0,97,0.05,,,1.20,1.000000,,2013-01-27 02:21:00,
2013-01-26 19:31:00,36.0,35.0,-100.00,SSW,212,7.0,15.0,97,0.05,,,1.20,1.000000,,2013-01-27 02:31:00,
2013-01-26 20:01:00,37.0,36.0,-100.00,SW,236,9.0,16.0,98,0.04,,,1.24,1.000000,,2013-01-27 03:01:00,
2013-01-26 20:11:00,37.0,36.0,-100.00,SW,236,9.0,16.0,98,0.04,,,1.24,1.000000,,2013-01-27 03:11:00,
2013-01-26 20:21:00,37.0,36.0,-100.00,SW,236,9.0,16.0,98,0.04,,,1.24,1.000000,,2013-01-27 03:21:00,
2013-01-26 20:31:00,37.0,36.0,-100.00,SW,236,9.0,16.0,98,0.04,,,1.24,1.000000,,2013-01-27 03:31:00,
2013-01-26 21:01:00,37.0,36.0,-100.00,WSW,241,11.0,17.0,98,0.04,,,1.28,1.000000,,2013-01-27 04:01:00,
2013-01-26 21:11:00,37.0,36.0,-100.00,WSW,241,11.0,17.0,98,0.04,,,1.28,1.000000,,2013-01-27 04:11:00,
2013-01-26 21:21:00,37.0,36.0,-100.00,WSW,241,11.0,17.0,98,0.04,,,1.28,1.000000,,2013-01-27 04:21:00,
2013-01-26 21:31:00,37.0,36.0,-100.00,WSW,241,11.0,17.0,98,0.04,,,1.28,1.000000,,2013-01-27 04:31:00,
2013-01-26 21:52:00,37.0,36.0,-100.00,WSW,245,12.0,19.0,98,0.05,,,1.33,1.000000,,2013-01-27 04:52:00,
2013-01-26 22:03:00,37.0,36.0,-100.00,WSW,245,12.0,19.0,98,0.05,,,1.33,1.000000,,2013-01-27 05:03:00,
2013-01-26 22:12:00,37.0,36.0,-100.00,WSW,245,12.0,19.0,98,0.05,,,1.33,1.000000,,2013-01-27 05:12:00,
2013-01-26 22:22:00,37.0,36.0,-100.00,WSW,245,12.0,19.0,98,0.05,,,1.33,1.000000,,2013-01-27 05:22:00,
2013-01-26 22:31:00,37.0,36.0,-100.00,WSW,245,12.0,19.0,98,0.05,,,1.33,1.000000,,2013-01-27 05:31:00,
2013-01-26 23:01:00,37.0,37.0,-100.00,WSW,249,10.0,17.0,99,0.02,,,1.35,1.000000,,2013-01-27 06:01:00,
2013-01-26 23:11:00,37.0,37.0,-100.00,WSW,249,10.0,17.0,99,0.02,,,1.35,1.000000,,2013-01-27 06:11:00,
2013-01-26 23:21:00,37.0,37.0,-100.00,WSW,249,10.0,17.0,99,0.02,,,1.35,1.000000,,2013-01-27 06:21:00,
2013-01-26 23:31:00,37.0,37.0,-100.00,WSW,249,10.0,17.0,99,0.02,,,1.35,1.000000,,2013-01-27 06:31:00,